sensor_id;sensor_type;location;lat;lon;timestamp;P1;durP1;ratioP1;P2;durP2;ratioP2
80297;SDS011;69599;52.622;9.230;2023-07-13T00:00:11;6.30;;;4.00;;
80297;SDS011;69599;52.622;9.230;2023-07-13T00:02:40;6.07;;;4.18;;
80297;SDS011;69599;52.622;9.230;2023-07-13T00:05:06;8.52;;;4.47;;
80297;SDS011;69599;52.622;9.230;2023-07-13T00:07:32;6.18;;;4.00;;
80297;SDS011;69599;52.622;9.230;2023-07-13T00:09:57;6.53;;;4.10;;
80297;SDS011;69599;52.622;9.230;2023-07-13T00:14:55;7.93;;;4.03;;
80297;SDS011;69599;52.622;9.230;2023-07-13T00:17:21;7.10;;;4.20;;
80297;SDS011;69599;52.622;9.230;2023-07-13T00:19:47;7.03;;;4.13;;
80297;SDS011;69599;52.622;9.230;2023-07-13T00:22:13;6.90;;;4.30;;
80297;SDS011;69599;52.622;9.230;2023-07-13T00:24:38;5.78;;;4.05;;
80297;SDS011;69599;52.622;9.230;2023-07-13T00:27:07;9.48;;;3.97;;
80297;SDS011;69599;52.622;9.230;2023-07-13T00:29:34;5.88;;;4.18;;
80297;SDS011;69599;52.622;9.230;2023-07-13T00:32:00;5.63;;;3.75;;
80297;SDS011;69599;52.622;9.230;2023-07-13T00:34:25;5.43;;;4.05;;
80297;SDS011;69599;52.622;9.230;2023-07-13T00:36:51;4.32;;;3.55;;
80297;SDS011;69599;52.622;9.230;2023-07-13T00:39:16;8.00;;;3.88;;
80297;SDS011;69599;52.622;9.230;2023-07-13T00:41:42;6.45;;;4.03;;
80297;SDS011;69599;52.622;9.230;2023-07-13T00:44:18;6.47;;;3.80;;
80297;SDS011;69599;52.622;9.230;2023-07-13T00:46:44;5.53;;;3.78;;
80297;SDS011;69599;52.622;9.230;2023-07-13T00:49:12;8.02;;;4.18;;
80297;SDS011;69599;52.622;9.230;2023-07-13T00:51:46;7.57;;;4.35;;
80297;SDS011;69599;52.622;9.230;2023-07-13T00:54:15;6.43;;;3.88;;
80297;SDS011;69599;52.622;9.230;2023-07-13T00:56:44;5.05;;;3.50;;
80297;SDS011;69599;52.622;9.230;2023-07-13T00:59:12;7.38;;;3.78;;
80297;SDS011;69599;52.622;9.230;2023-07-13T01:01:38;7.38;;;3.97;;
80297;SDS011;69599;52.622;9.230;2023-07-13T01:04:04;6.47;;;4.53;;
80297;SDS011;69599;52.622;9.230;2023-07-13T01:06:33;5.38;;;4.13;;
80297;SDS011;69599;52.622;9.230;2023-07-13T01:09:00;7.43;;;3.65;;
80297;SDS011;69599;52.622;9.230;2023-07-13T01:11:26;5.97;;;4.45;;
80297;SDS011;69599;52.622;9.230;2023-07-13T01:13:52;7.40;;;4.15;;
80297;SDS011;69599;52.622;9.230;2023-07-13T01:16:20;6.78;;;3.83;;
80297;SDS011;69599;52.622;9.230;2023-07-13T01:18:49;6.03;;;3.88;;
80297;SDS011;69599;52.622;9.230;2023-07-13T01:21:15;6.00;;;3.65;;
80297;SDS011;69599;52.622;9.230;2023-07-13T01:23:41;5.82;;;3.97;;
80297;SDS011;69599;52.622;9.230;2023-07-13T01:26:06;5.72;;;3.60;;
80297;SDS011;69599;52.622;9.230;2023-07-13T01:28:32;4.07;;;3.30;;
80297;SDS011;69599;52.622;9.230;2023-07-13T01:31:01;6.65;;;3.65;;
80297;SDS011;69599;52.622;9.230;2023-07-13T01:33:27;4.78;;;3.40;;
80297;SDS011;69599;52.622;9.230;2023-07-13T01:35:52;5.93;;;4.07;;
80297;SDS011;69599;52.622;9.230;2023-07-13T01:38:19;6.25;;;3.58;;
80297;SDS011;69599;52.622;9.230;2023-07-13T01:40:46;6.78;;;3.88;;
80297;SDS011;69599;52.622;9.230;2023-07-13T01:43:11;5.95;;;3.78;;
80297;SDS011;69599;52.622;9.230;2023-07-13T01:45:37;7.70;;;3.97;;
80297;SDS011;69599;52.622;9.230;2023-07-13T01:48:03;5.70;;;4.07;;
80297;SDS011;69599;52.622;9.230;2023-07-13T01:50:31;7.03;;;3.78;;
80297;SDS011;69599;52.622;9.230;2023-07-13T01:52:57;8.05;;;3.60;;
80297;SDS011;69599;52.622;9.230;2023-07-13T01:55:22;6.43;;;3.70;;
80297;SDS011;69599;52.622;9.230;2023-07-13T01:57:48;5.00;;;4.32;;
80297;SDS011;69599;52.622;9.230;2023-07-13T02:00:14;5.28;;;3.88;;
80297;SDS011;69599;52.622;9.230;2023-07-13T02:02:40;8.13;;;4.00;;
80297;SDS011;69599;52.622;9.230;2023-07-13T02:05:05;7.97;;;3.92;;
80297;SDS011;69599;52.622;9.230;2023-07-13T02:07:31;5.60;;;3.50;;
80297;SDS011;69599;52.622;9.230;2023-07-13T02:09:57;5.07;;;4.05;;
80297;SDS011;69599;52.622;9.230;2023-07-13T02:12:22;6.05;;;4.30;;
80297;SDS011;69599;52.622;9.230;2023-07-13T02:14:48;7.15;;;3.72;;
80297;SDS011;69599;52.622;9.230;2023-07-13T02:17:13;6.15;;;3.80;;
80297;SDS011;69599;52.622;9.230;2023-07-13T02:19:39;6.70;;;4.05;;
80297;SDS011;69599;52.622;9.230;2023-07-13T02:22:05;5.97;;;4.15;;
80297;SDS011;69599;52.622;9.230;2023-07-13T02:24:30;5.53;;;3.80;;
80297;SDS011;69599;52.622;9.230;2023-07-13T02:29:24;7.22;;;3.83;;
80297;SDS011;69599;52.622;9.230;2023-07-13T02:31:49;9.10;;;4.00;;
80297;SDS011;69599;52.622;9.230;2023-07-13T02:34:15;5.45;;;3.25;;
80297;SDS011;69599;52.622;9.230;2023-07-13T02:36:40;5.55;;;3.22;;
80297;SDS011;69599;52.622;9.230;2023-07-13T02:39:06;8.15;;;3.20;;
80297;SDS011;69599;52.622;9.230;2023-07-13T02:41:32;6.13;;;3.40;;
80297;SDS011;69599;52.622;9.230;2023-07-13T02:43:58;6.80;;;3.10;;
80297;SDS011;69599;52.622;9.230;2023-07-13T02:46:32;11.50;;;4.32;;
80297;SDS011;69599;52.622;9.230;2023-07-13T02:48:58;6.97;;;3.25;;
80297;SDS011;69599;52.622;9.230;2023-07-13T02:51:24;5.43;;;3.40;;
80297;SDS011;69599;52.622;9.230;2023-07-13T02:53:49;7.47;;;4.28;;
80297;SDS011;69599;52.622;9.230;2023-07-13T02:56:15;5.35;;;3.20;;
80297;SDS011;69599;52.622;9.230;2023-07-13T02:58:40;6.47;;;3.58;;
80297;SDS011;69599;52.622;9.230;2023-07-13T03:01:09;6.35;;;3.38;;
80297;SDS011;69599;52.622;9.230;2023-07-13T03:03:37;4.93;;;3.40;;
80297;SDS011;69599;52.622;9.230;2023-07-13T03:06:03;4.18;;;2.70;;
80297;SDS011;69599;52.622;9.230;2023-07-13T03:08:30;5.32;;;2.85;;
80297;SDS011;69599;52.622;9.230;2023-07-13T03:10:59;7.53;;;2.65;;
80297;SDS011;69599;52.622;9.230;2023-07-13T03:13:25;4.82;;;2.65;;
80297;SDS011;69599;52.622;9.230;2023-07-13T03:15:51;4.95;;;2.78;;
80297;SDS011;69599;52.622;9.230;2023-07-13T03:18:16;3.78;;;2.63;;
80297;SDS011;69599;52.622;9.230;2023-07-13T03:20:42;5.50;;;2.83;;
80297;SDS011;69599;52.622;9.230;2023-07-13T03:23:07;8.90;;;2.83;;
80297;SDS011;69599;52.622;9.230;2023-07-13T03:25:32;5.63;;;2.88;;
80297;SDS011;69599;52.622;9.230;2023-07-13T03:27:58;6.72;;;2.88;;
80297;SDS011;69599;52.622;9.230;2023-07-13T03:30:23;7.30;;;2.72;;
80297;SDS011;69599;52.622;9.230;2023-07-13T03:32:49;4.15;;;2.50;;
80297;SDS011;69599;52.622;9.230;2023-07-13T03:35:14;7.13;;;2.40;;
80297;SDS011;69599;52.622;9.230;2023-07-13T03:37:39;3.72;;;2.22;;
80297;SDS011;69599;52.622;9.230;2023-07-13T03:40:07;6.65;;;2.40;;
80297;SDS011;69599;52.622;9.230;2023-07-13T03:42:34;7.55;;;2.45;;
80297;SDS011;69599;52.622;9.230;2023-07-13T03:44:59;8.90;;;3.20;;
80297;SDS011;69599;52.622;9.230;2023-07-13T03:47:24;3.58;;;1.85;;
80297;SDS011;69599;52.622;9.230;2023-07-13T03:49:50;6.30;;;3.17;;
80297;SDS011;69599;52.622;9.230;2023-07-13T03:52:15;5.35;;;1.92;;
80297;SDS011;69599;52.622;9.230;2023-07-13T03:54:40;7.60;;;2.60;;
80297;SDS011;69599;52.622;9.230;2023-07-13T03:57:06;5.50;;;2.28;;
80297;SDS011;69599;52.622;9.230;2023-07-13T03:59:34;7.75;;;2.00;;
80297;SDS011;69599;52.622;9.230;2023-07-13T04:02:00;4.63;;;2.05;;
80297;SDS011;69599;52.622;9.230;2023-07-13T04:04:26;4.93;;;2.05;;
80297;SDS011;69599;52.622;9.230;2023-07-13T04:06:51;7.45;;;1.88;;
80297;SDS011;69599;52.622;9.230;2023-07-13T04:09:18;5.85;;;1.90;;
80297;SDS011;69599;52.622;9.230;2023-07-13T04:11:44;4.97;;;1.80;;
80297;SDS011;69599;52.622;9.230;2023-07-13T04:14:09;5.60;;;2.42;;
80297;SDS011;69599;52.622;9.230;2023-07-13T04:16:35;8.82;;;2.17;;
80297;SDS011;69599;52.622;9.230;2023-07-13T04:19:00;6.97;;;2.33;;
80297;SDS011;69599;52.622;9.230;2023-07-13T04:21:29;6.63;;;1.88;;
80297;SDS011;69599;52.622;9.230;2023-07-13T04:23:55;5.03;;;2.15;;
80297;SDS011;69599;52.622;9.230;2023-07-13T04:26:21;7.25;;;1.80;;
80297;SDS011;69599;52.622;9.230;2023-07-13T04:28:47;6.38;;;2.15;;
80297;SDS011;69599;52.622;9.230;2023-07-13T04:31:14;6.22;;;2.25;;
80297;SDS011;69599;52.622;9.230;2023-07-13T04:33:39;9.23;;;2.13;;
80297;SDS011;69599;52.622;9.230;2023-07-13T04:36:05;5.28;;;1.60;;
80297;SDS011;69599;52.622;9.230;2023-07-13T04:38:31;5.50;;;2.65;;
80297;SDS011;69599;52.622;9.230;2023-07-13T04:40:58;4.47;;;2.10;;
80297;SDS011;69599;52.622;9.230;2023-07-13T04:43:27;4.22;;;1.88;;
80297;SDS011;69599;52.622;9.230;2023-07-13T04:45:53;5.53;;;2.35;;
80297;SDS011;69599;52.622;9.230;2023-07-13T04:48:19;4.68;;;2.15;;
80297;SDS011;69599;52.622;9.230;2023-07-13T04:50:45;8.57;;;2.28;;
80297;SDS011;69599;52.622;9.230;2023-07-13T04:53:10;8.88;;;2.38;;
80297;SDS011;69599;52.622;9.230;2023-07-13T04:55:36;6.00;;;2.88;;
80297;SDS011;69599;52.622;9.230;2023-07-13T04:58:02;8.52;;;3.08;;
80297;SDS011;69599;52.622;9.230;2023-07-13T05:00:28;5.93;;;2.20;;
80297;SDS011;69599;52.622;9.230;2023-07-13T05:02:55;7.50;;;2.70;;
80297;SDS011;69599;52.622;9.230;2023-07-13T05:05:21;9.23;;;2.72;;
80297;SDS011;69599;52.622;9.230;2023-07-13T05:07:46;5.93;;;2.05;;
80297;SDS011;69599;52.622;9.230;2023-07-13T05:10:12;9.90;;;2.53;;
80297;SDS011;69599;52.622;9.230;2023-07-13T05:12:37;6.20;;;2.60;;
80297;SDS011;69599;52.622;9.230;2023-07-13T05:15:03;5.88;;;2.53;;
80297;SDS011;69599;52.622;9.230;2023-07-13T05:17:29;5.75;;;2.40;;
80297;SDS011;69599;52.622;9.230;2023-07-13T05:19:54;8.55;;;2.50;;
80297;SDS011;69599;52.622;9.230;2023-07-13T05:22:19;4.28;;;2.42;;
80297;SDS011;69599;52.622;9.230;2023-07-13T05:24:45;6.53;;;3.28;;
80297;SDS011;69599;52.622;9.230;2023-07-13T05:27:10;6.88;;;2.35;;
80297;SDS011;69599;52.622;9.230;2023-07-13T05:29:36;3.55;;;2.20;;
80297;SDS011;69599;52.622;9.230;2023-07-13T05:32:01;4.15;;;2.20;;
80297;SDS011;69599;52.622;9.230;2023-07-13T05:34:27;5.78;;;2.25;;
80297;SDS011;69599;52.622;9.230;2023-07-13T05:36:52;7.70;;;2.50;;
80297;SDS011;69599;52.622;9.230;2023-07-13T05:39:18;7.43;;;2.47;;
80297;SDS011;69599;52.622;9.230;2023-07-13T05:41:44;5.25;;;2.00;;
80297;SDS011;69599;52.622;9.230;2023-07-13T05:44:09;4.75;;;2.05;;
80297;SDS011;69599;52.622;9.230;2023-07-13T05:46:34;8.07;;;2.28;;
80297;SDS011;69599;52.622;9.230;2023-07-13T05:49:00;5.45;;;2.40;;
80297;SDS011;69599;52.622;9.230;2023-07-13T05:51:26;9.35;;;2.40;;
80297;SDS011;69599;52.622;9.230;2023-07-13T05:53:51;7.13;;;2.33;;
80297;SDS011;69599;52.622;9.230;2023-07-13T05:56:17;3.17;;;1.80;;
80297;SDS011;69599;52.622;9.230;2023-07-13T05:58:42;7.90;;;2.17;;
80297;SDS011;69599;52.622;9.230;2023-07-13T06:01:13;7.07;;;2.85;;
80297;SDS011;69599;52.622;9.230;2023-07-13T06:03:39;6.78;;;2.20;;
80297;SDS011;69599;52.622;9.230;2023-07-13T06:06:05;3.35;;;2.25;;
80297;SDS011;69599;52.622;9.230;2023-07-13T06:08:32;5.88;;;1.98;;
80297;SDS011;69599;52.622;9.230;2023-07-13T06:11:10;7.00;;;2.53;;
80297;SDS011;69599;52.622;9.230;2023-07-13T06:13:39;8.18;;;2.05;;
80297;SDS011;69599;52.622;9.230;2023-07-13T06:16:04;5.43;;;2.22;;
80297;SDS011;69599;52.622;9.230;2023-07-13T06:18:31;10.10;;;2.55;;
80297;SDS011;69599;52.622;9.230;2023-07-13T06:20:59;7.70;;;1.80;;
80297;SDS011;69599;52.622;9.230;2023-07-13T06:23:25;8.65;;;2.58;;
80297;SDS011;69599;52.622;9.230;2023-07-13T06:25:50;6.03;;;1.95;;
80297;SDS011;69599;52.622;9.230;2023-07-13T06:28:16;4.90;;;1.92;;
80297;SDS011;69599;52.622;9.230;2023-07-13T06:30:41;4.80;;;1.80;;
80297;SDS011;69599;52.622;9.230;2023-07-13T06:33:07;8.30;;;1.75;;
80297;SDS011;69599;52.622;9.230;2023-07-13T06:35:32;5.43;;;1.85;;
80297;SDS011;69599;52.622;9.230;2023-07-13T06:37:58;5.30;;;2.00;;
80297;SDS011;69599;52.622;9.230;2023-07-13T06:40:24;5.35;;;2.15;;
80297;SDS011;69599;52.622;9.230;2023-07-13T06:42:49;7.07;;;2.25;;
80297;SDS011;69599;52.622;9.230;2023-07-13T06:45:15;7.57;;;2.00;;
80297;SDS011;69599;52.622;9.230;2023-07-13T06:47:41;6.15;;;2.13;;
80297;SDS011;69599;52.622;9.230;2023-07-13T06:50:07;4.60;;;1.60;;
80297;SDS011;69599;52.622;9.230;2023-07-13T06:52:33;4.97;;;1.50;;
80297;SDS011;69599;52.622;9.230;2023-07-13T06:54:58;9.80;;;1.92;;
80297;SDS011;69599;52.622;9.230;2023-07-13T06:57:24;5.95;;;1.80;;
80297;SDS011;69599;52.622;9.230;2023-07-13T06:59:49;9.43;;;2.33;;
80297;SDS011;69599;52.622;9.230;2023-07-13T07:02:15;9.52;;;1.83;;
80297;SDS011;69599;52.622;9.230;2023-07-13T07:04:40;8.15;;;2.03;;
80297;SDS011;69599;52.622;9.230;2023-07-13T07:07:06;7.93;;;2.13;;
80297;SDS011;69599;52.622;9.230;2023-07-13T07:09:31;7.60;;;2.80;;
80297;SDS011;69599;52.622;9.230;2023-07-13T07:11:57;9.85;;;2.17;;
80297;SDS011;69599;52.622;9.230;2023-07-13T07:14:22;8.05;;;2.10;;
80297;SDS011;69599;52.622;9.230;2023-07-13T07:16:49;8.48;;;2.05;;
80297;SDS011;69599;52.622;9.230;2023-07-13T07:19:15;6.97;;;2.67;;
80297;SDS011;69599;52.622;9.230;2023-07-13T07:21:40;10.43;;;3.20;;
80297;SDS011;69599;52.622;9.230;2023-07-13T07:24:06;8.13;;;2.45;;
80297;SDS011;69599;52.622;9.230;2023-07-13T07:26:32;8.32;;;1.92;;
80297;SDS011;69599;52.622;9.230;2023-07-13T07:28:58;7.40;;;2.13;;
80297;SDS011;69599;52.622;9.230;2023-07-13T07:31:23;7.43;;;1.83;;
80297;SDS011;69599;52.622;9.230;2023-07-13T07:33:49;5.70;;;2.00;;
80297;SDS011;69599;52.622;9.230;2023-07-13T07:36:15;7.03;;;2.17;;
80297;SDS011;69599;52.622;9.230;2023-07-13T07:38:41;6.15;;;1.70;;
80297;SDS011;69599;52.622;9.230;2023-07-13T07:41:07;7.30;;;2.50;;
80297;SDS011;69599;52.622;9.230;2023-07-13T07:43:32;6.53;;;2.20;;
80297;SDS011;69599;52.622;9.230;2023-07-13T07:45:58;3.97;;;2.08;;
80297;SDS011;69599;52.622;9.230;2023-07-13T07:48:23;5.65;;;1.90;;
80297;SDS011;69599;52.622;9.230;2023-07-13T07:50:49;8.30;;;2.00;;
80297;SDS011;69599;52.622;9.230;2023-07-13T07:53:16;6.78;;;1.60;;
80297;SDS011;69599;52.622;9.230;2023-07-13T07:55:41;8.13;;;2.15;;
80297;SDS011;69599;52.622;9.230;2023-07-13T07:58:07;7.07;;;2.13;;
80297;SDS011;69599;52.622;9.230;2023-07-13T08:00:32;7.78;;;2.03;;
80297;SDS011;69599;52.622;9.230;2023-07-13T08:02:58;7.43;;;1.92;;
80297;SDS011;69599;52.622;9.230;2023-07-13T08:05:24;7.30;;;2.40;;
80297;SDS011;69599;52.622;9.230;2023-07-13T08:07:50;6.60;;;1.92;;
80297;SDS011;69599;52.622;9.230;2023-07-13T08:10:15;5.13;;;1.92;;
80297;SDS011;69599;52.622;9.230;2023-07-13T08:12:41;4.45;;;2.25;;
80297;SDS011;69599;52.622;9.230;2023-07-13T08:15:09;6.65;;;2.03;;
80297;SDS011;69599;52.622;9.230;2023-07-13T08:17:36;7.95;;;2.10;;
80297;SDS011;69599;52.622;9.230;2023-07-13T08:20:02;5.07;;;1.70;;
80297;SDS011;69599;52.622;9.230;2023-07-13T08:22:27;6.68;;;2.00;;
80297;SDS011;69599;52.622;9.230;2023-07-13T08:24:53;6.40;;;1.73;;
80297;SDS011;69599;52.622;9.230;2023-07-13T08:27:25;6.53;;;1.70;;
80297;SDS011;69599;52.622;9.230;2023-07-13T08:29:52;7.10;;;1.92;;
80297;SDS011;69599;52.622;9.230;2023-07-13T08:32:18;8.63;;;2.33;;
80297;SDS011;69599;52.622;9.230;2023-07-13T08:34:45;7.50;;;2.10;;
80297;SDS011;69599;52.622;9.230;2023-07-13T08:37:11;6.55;;;1.90;;
80297;SDS011;69599;52.622;9.230;2023-07-13T08:39:36;7.60;;;1.95;;
80297;SDS011;69599;52.622;9.230;2023-07-13T08:42:07;3.90;;;1.48;;
80297;SDS011;69599;52.622;9.230;2023-07-13T08:44:40;4.40;;;1.50;;
80297;SDS011;69599;52.622;9.230;2023-07-13T08:47:26;5.85;;;1.50;;
80297;SDS011;69599;52.622;9.230;2023-07-13T08:49:53;6.50;;;1.70;;
80297;SDS011;69599;52.622;9.230;2023-07-13T08:54:50;6.78;;;1.48;;
80297;SDS011;69599;52.622;9.230;2023-07-13T08:57:30;5.07;;;1.20;;
80297;SDS011;69599;52.622;9.230;2023-07-13T08:59:58;5.68;;;1.40;;
80297;SDS011;69599;52.622;9.230;2023-07-13T09:05:12;4.22;;;1.08;;
80297;SDS011;69599;52.622;9.230;2023-07-13T09:07:45;8.80;;;2.30;;
80297;SDS011;69599;52.622;9.230;2023-07-13T09:10:26;2.95;;;1.67;;
80297;SDS011;69599;52.622;9.230;2023-07-13T09:15:37;4.18;;;1.33;;
80297;SDS011;69599;52.622;9.230;2023-07-13T09:18:28;4.25;;;1.63;;
80297;SDS011;69599;52.622;9.230;2023-07-13T09:21:03;2.38;;;1.17;;
80297;SDS011;69599;52.622;9.230;2023-07-13T09:23:34;6.00;;;1.30;;
80297;SDS011;69599;52.622;9.230;2023-07-13T09:26:01;6.40;;;1.20;;
80297;SDS011;69599;52.622;9.230;2023-07-13T09:28:33;2.45;;;1.10;;
80297;SDS011;69599;52.622;9.230;2023-07-13T09:31:16;2.53;;;1.13;;
80297;SDS011;69599;52.622;9.230;2023-07-13T09:33:54;3.85;;;1.25;;
80297;SDS011;69599;52.622;9.230;2023-07-13T09:36:24;7.55;;;1.48;;
80297;SDS011;69599;52.622;9.230;2023-07-13T09:39:11;3.55;;;1.38;;
80297;SDS011;69599;52.622;9.230;2023-07-13T09:41:50;3.35;;;1.23;;
80297;SDS011;69599;52.622;9.230;2023-07-13T09:44:26;5.55;;;1.75;;
80297;SDS011;69599;52.622;9.230;2023-07-13T09:46:56;3.00;;;1.63;;
80297;SDS011;69599;52.622;9.230;2023-07-13T09:49:28;6.05;;;1.50;;
80297;SDS011;69599;52.622;9.230;2023-07-13T09:52:00;6.85;;;2.08;;
80297;SDS011;69599;52.622;9.230;2023-07-13T09:54:28;3.47;;;1.65;;
80297;SDS011;69599;52.622;9.230;2023-07-13T09:56:58;6.53;;;1.90;;
80297;SDS011;69599;52.622;9.230;2023-07-13T09:59:26;3.42;;;1.40;;
80297;SDS011;69599;52.622;9.230;2023-07-13T10:01:54;3.60;;;1.60;;
80297;SDS011;69599;52.622;9.230;2023-07-13T10:04:27;4.32;;;1.27;;
80297;SDS011;69599;52.622;9.230;2023-07-13T10:07:11;3.50;;;1.58;;
80297;SDS011;69599;52.622;9.230;2023-07-13T10:09:38;4.50;;;1.40;;
80297;SDS011;69599;52.622;9.230;2023-07-13T10:12:04;3.72;;;1.33;;
80297;SDS011;69599;52.622;9.230;2023-07-13T10:14:38;5.07;;;1.80;;
80297;SDS011;69599;52.622;9.230;2023-07-13T10:17:04;3.17;;;1.25;;
80297;SDS011;69599;52.622;9.230;2023-07-13T10:19:34;4.40;;;1.73;;
80297;SDS011;69599;52.622;9.230;2023-07-13T10:22:01;5.07;;;1.67;;
80297;SDS011;69599;52.622;9.230;2023-07-13T10:24:30;4.28;;;1.52;;
80297;SDS011;69599;52.622;9.230;2023-07-13T10:29:36;4.32;;;1.33;;
80297;SDS011;69599;52.622;9.230;2023-07-13T10:32:08;5.03;;;2.30;;
80297;SDS011;69599;52.622;9.230;2023-07-13T10:34:35;4.50;;;1.67;;
80297;SDS011;69599;52.622;9.230;2023-07-13T10:37:01;4.43;;;1.52;;
80297;SDS011;69599;52.622;9.230;2023-07-13T10:39:27;6.00;;;1.35;;
80297;SDS011;69599;52.622;9.230;2023-07-13T10:41:54;2.72;;;1.35;;
80297;SDS011;69599;52.622;9.230;2023-07-13T10:44:26;3.40;;;1.30;;
80297;SDS011;69599;52.622;9.230;2023-07-13T10:47:04;5.43;;;1.30;;
80297;SDS011;69599;52.622;9.230;2023-07-13T10:49:32;4.47;;;1.60;;
80297;SDS011;69599;52.622;9.230;2023-07-13T10:51:58;7.00;;;1.52;;
80297;SDS011;69599;52.622;9.230;2023-07-13T10:54:31;2.53;;;1.30;;
80297;SDS011;69599;52.622;9.230;2023-07-13T10:57:08;4.60;;;1.60;;
80297;SDS011;69599;52.622;9.230;2023-07-13T11:00:10;3.15;;;1.10;;
80297;SDS011;69599;52.622;9.230;2023-07-13T11:02:37;3.60;;;1.35;;
80297;SDS011;69599;52.622;9.230;2023-07-13T11:08:16;3.03;;;1.05;;
80297;SDS011;69599;52.622;9.230;2023-07-13T11:10:50;3.50;;;1.33;;
80297;SDS011;69599;52.622;9.230;2023-07-13T11:16:01;4.55;;;1.63;;
80297;SDS011;69599;52.622;9.230;2023-07-13T11:18:38;4.88;;;1.50;;
80297;SDS011;69599;52.622;9.230;2023-07-13T11:21:20;3.03;;;1.40;;
80297;SDS011;69599;52.622;9.230;2023-07-13T11:24:42;2.33;;;1.33;;
80297;SDS011;69599;52.622;9.230;2023-07-13T11:26:40;4.18;;;1.40;;
80297;SDS011;69599;52.622;9.230;2023-07-13T11:31:54;3.35;;;1.38;;
80297;SDS011;69599;52.622;9.230;2023-07-13T11:34:43;2.42;;;1.25;;
80297;SDS011;69599;52.622;9.230;2023-07-13T11:37:10;3.05;;;1.20;;
80297;SDS011;69599;52.622;9.230;2023-07-13T11:39:39;3.42;;;1.52;;
80297;SDS011;69599;52.622;9.230;2023-07-13T11:42:09;6.60;;;2.38;;
80297;SDS011;69599;52.622;9.230;2023-07-13T11:44:41;3.08;;;1.48;;
80297;SDS011;69599;52.622;9.230;2023-07-13T11:47:17;3.65;;;1.73;;
80297;SDS011;69599;52.622;9.230;2023-07-13T11:49:54;3.95;;;1.65;;
80297;SDS011;69599;52.622;9.230;2023-07-13T11:52:34;2.88;;;1.30;;
80297;SDS011;69599;52.622;9.230;2023-07-13T11:55:18;3.58;;;1.30;;
80297;SDS011;69599;52.622;9.230;2023-07-13T11:57:45;2.90;;;1.40;;
80297;SDS011;69599;52.622;9.230;2023-07-13T12:00:15;4.18;;;1.50;;
80297;SDS011;69599;52.622;9.230;2023-07-13T12:02:43;4.63;;;1.58;;
80297;SDS011;69599;52.622;9.230;2023-07-13T12:05:14;4.57;;;1.50;;
80297;SDS011;69599;52.622;9.230;2023-07-13T12:07:41;3.50;;;1.48;;
80297;SDS011;69599;52.622;9.230;2023-07-13T12:12:51;2.63;;;1.52;;
80297;SDS011;69599;52.622;9.230;2023-07-13T12:15:21;3.63;;;1.48;;
80297;SDS011;69599;52.622;9.230;2023-07-13T12:17:48;3.25;;;1.58;;
80297;SDS011;69599;52.622;9.230;2023-07-13T12:20:22;2.83;;;1.42;;
80297;SDS011;69599;52.622;9.230;2023-07-13T12:22:50;3.38;;;1.35;;
80297;SDS011;69599;52.622;9.230;2023-07-13T12:25:17;2.90;;;1.52;;
80297;SDS011;69599;52.622;9.230;2023-07-13T12:27:46;4.00;;;1.58;;
80297;SDS011;69599;52.622;9.230;2023-07-13T12:30:25;3.83;;;1.30;;
80297;SDS011;69599;52.622;9.230;2023-07-13T12:33:00;7.53;;;1.40;;
80297;SDS011;69599;52.622;9.230;2023-07-13T12:35:26;4.60;;;1.10;;
80297;SDS011;69599;52.622;9.230;2023-07-13T12:37:56;4.25;;;1.40;;
80297;SDS011;69599;52.622;9.230;2023-07-13T12:40:25;2.55;;;0.90;;
80297;SDS011;69599;52.622;9.230;2023-07-13T12:42:54;3.30;;;1.33;;
80297;SDS011;69599;52.622;9.230;2023-07-13T12:45:21;2.20;;;0.90;;
80297;SDS011;69599;52.622;9.230;2023-07-13T12:47:49;2.40;;;1.00;;
80297;SDS011;69599;52.622;9.230;2023-07-13T12:50:16;1.45;;;0.80;;
80297;SDS011;69599;52.622;9.230;2023-07-13T12:52:55;4.53;;;0.90;;
80297;SDS011;69599;52.622;9.230;2023-07-13T12:55:24;2.13;;;0.90;;
80297;SDS011;69599;52.622;9.230;2023-07-13T12:57:54;2.55;;;0.90;;
80297;SDS011;69599;52.622;9.230;2023-07-13T13:00:22;1.88;;;0.90;;
80297;SDS011;69599;52.622;9.230;2023-07-13T13:02:50;2.70;;;1.05;;
80297;SDS011;69599;52.622;9.230;2023-07-13T13:05:16;1.42;;;0.77;;
80297;SDS011;69599;52.622;9.230;2023-07-13T13:07:41;2.03;;;0.80;;
80297;SDS011;69599;52.622;9.230;2023-07-13T13:10:13;2.40;;;0.90;;
80297;SDS011;69599;52.622;9.230;2023-07-13T13:12:39;1.50;;;0.90;;
80297;SDS011;69599;52.622;9.230;2023-07-13T13:15:07;1.00;;;0.63;;
80297;SDS011;69599;52.622;9.230;2023-07-13T13:17:34;2.97;;;0.88;;
80297;SDS011;69599;52.622;9.230;2023-07-13T13:19:59;1.33;;;0.80;;
80297;SDS011;69599;52.622;9.230;2023-07-13T13:22:25;2.45;;;0.80;;
80297;SDS011;69599;52.622;9.230;2023-07-13T13:24:50;2.65;;;0.80;;
80297;SDS011;69599;52.622;9.230;2023-07-13T13:27:19;1.38;;;0.75;;
80297;SDS011;69599;52.622;9.230;2023-07-13T13:29:46;2.13;;;0.80;;
80297;SDS011;69599;52.622;9.230;2023-07-13T13:32:14;1.27;;;0.60;;
80297;SDS011;69599;52.622;9.230;2023-07-13T13:34:40;2.35;;;0.90;;
80297;SDS011;69599;52.622;9.230;2023-07-13T13:37:39;0.95;;;0.57;;
80297;SDS011;69599;52.622;9.230;2023-07-13T13:39:57;1.17;;;0.77;;
80297;SDS011;69599;52.622;9.230;2023-07-13T13:42:23;1.55;;;0.90;;
80297;SDS011;69599;52.622;9.230;2023-07-13T13:44:50;1.55;;;0.77;;
80297;SDS011;69599;52.622;9.230;2023-07-13T13:47:33;2.58;;;0.93;;
80297;SDS011;69599;52.622;9.230;2023-07-13T13:50:01;3.08;;;1.10;;
80297;SDS011;69599;52.622;9.230;2023-07-13T13:52:27;2.92;;;1.10;;
80297;SDS011;69599;52.622;9.230;2023-07-13T13:54:52;1.92;;;1.30;;
80297;SDS011;69599;52.622;9.230;2023-07-13T13:57:22;2.40;;;1.20;;
80297;SDS011;69599;52.622;9.230;2023-07-13T13:59:49;3.10;;;1.17;;
80297;SDS011;69599;52.622;9.230;2023-07-13T14:02:25;2.80;;;1.20;;
80297;SDS011;69599;52.622;9.230;2023-07-13T14:04:57;2.53;;;1.20;;
80297;SDS011;69599;52.622;9.230;2023-07-13T14:07:24;3.67;;;1.40;;
80297;SDS011;69599;52.622;9.230;2023-07-13T14:09:51;1.95;;;1.40;;
80297;SDS011;69599;52.622;9.230;2023-07-13T14:12:17;2.80;;;1.52;;
80297;SDS011;69599;52.622;9.230;2023-07-13T14:14:43;2.90;;;1.35;;
80297;SDS011;69599;52.622;9.230;2023-07-13T14:17:30;3.35;;;1.55;;
80297;SDS011;69599;52.622;9.230;2023-07-13T14:19:55;1.92;;;1.35;;
80297;SDS011;69599;52.622;9.230;2023-07-13T14:22:23;3.08;;;1.38;;
80297;SDS011;69599;52.622;9.230;2023-07-13T14:24:49;2.63;;;1.65;;
80297;SDS011;69599;52.622;9.230;2023-07-13T14:27:16;2.30;;;1.52;;
80297;SDS011;69599;52.622;9.230;2023-07-13T14:29:41;3.10;;;1.50;;
80297;SDS011;69599;52.622;9.230;2023-07-13T14:32:10;3.58;;;1.50;;
80297;SDS011;69599;52.622;9.230;2023-07-13T14:34:37;3.60;;;1.60;;
80297;SDS011;69599;52.622;9.230;2023-07-13T14:37:02;2.67;;;1.85;;
80297;SDS011;69599;52.622;9.230;2023-07-13T14:39:29;3.63;;;1.70;;
80297;SDS011;69599;52.622;9.230;2023-07-13T14:41:55;2.63;;;1.50;;
80297;SDS011;69599;52.622;9.230;2023-07-13T14:44:27;2.33;;;1.40;;
80297;SDS011;69599;52.622;9.230;2023-07-13T14:46:54;2.50;;;1.45;;
80297;SDS011;69599;52.622;9.230;2023-07-13T14:49:30;2.90;;;1.42;;
80297;SDS011;69599;52.622;9.230;2023-07-13T14:51:58;1.88;;;1.67;;
80297;SDS011;69599;52.622;9.230;2023-07-13T14:54:25;4.07;;;1.60;;
80297;SDS011;69599;52.622;9.230;2023-07-13T14:56:51;2.25;;;1.20;;
80297;SDS011;69599;52.622;9.230;2023-07-13T14:59:16;3.70;;;1.42;;
80297;SDS011;69599;52.622;9.230;2023-07-13T15:01:44;2.25;;;1.30;;
80297;SDS011;69599;52.622;9.230;2023-07-13T15:04:10;2.95;;;1.60;;
80297;SDS011;69599;52.622;9.230;2023-07-13T15:09:21;2.20;;;1.30;;
80297;SDS011;69599;52.622;9.230;2023-07-13T15:11:47;1.42;;;1.00;;
80297;SDS011;69599;52.622;9.230;2023-07-13T15:14:12;3.42;;;1.48;;
80297;SDS011;69599;52.622;9.230;2023-07-13T15:16:37;3.80;;;1.05;;
80297;SDS011;69599;52.622;9.230;2023-07-13T15:19:03;4.63;;;2.10;;
80297;SDS011;69599;52.622;9.230;2023-07-13T15:21:28;2.13;;;0.95;;